sensor_id;sensor_type;location;lat;lon;timestamp;temperature;humidity
51815;DHT22;37874;53.158;6.766;2023-02-15T00:01:18;18.60;55.50
51815;DHT22;37874;53.158;6.766;2023-02-15T00:03:44;18.60;55.50
51815;DHT22;37874;53.158;6.766;2023-02-15T00:06:12;18.60;55.40
51815;DHT22;37874;53.158;6.766;2023-02-15T00:08:38;18.50;55.40
51815;DHT22;37874;53.158;6.766;2023-02-15T00:11:07;18.50;55.40
51815;DHT22;37874;53.158;6.766;2023-02-15T00:13:33;18.50;55.50
51815;DHT22;37874;53.158;6.766;2023-02-15T00:16:05;18.50;55.50
51815;DHT22;37874;53.158;6.766;2023-02-15T00:18:31;18.50;55.50
51815;DHT22;37874;53.158;6.766;2023-02-15T00:20:57;18.50;55.60
51815;DHT22;37874;53.158;6.766;2023-02-15T00:23:23;18.50;55.60
51815;DHT22;37874;53.158;6.766;2023-02-15T00:25:48;18.50;55.50
51815;DHT22;37874;53.158;6.766;2023-02-15T00:28:14;18.50;55.60
51815;DHT22;37874;53.158;6.766;2023-02-15T00:30:39;18.50;55.50
51815;DHT22;37874;53.158;6.766;2023-02-15T00:33:05;18.50;55.40
51815;DHT22;37874;53.158;6.766;2023-02-15T00:35:30;18.40;55.50
51815;DHT22;37874;53.158;6.766;2023-02-15T00:37:56;18.40;55.60
51815;DHT22;37874;53.158;6.766;2023-02-15T00:40:22;18.40;55.60
51815;DHT22;37874;53.158;6.766;2023-02-15T00:42:48;18.40;55.60
51815;DHT22;37874;53.158;6.766;2023-02-15T00:45:13;18.40;55.60
51815;DHT22;37874;53.158;6.766;2023-02-15T00:47:39;18.40;55.60
51815;DHT22;37874;53.158;6.766;2023-02-15T00:50:06;18.40;55.50
51815;DHT22;37874;53.158;6.766;2023-02-15T00:52:32;18.40;55.50
51815;DHT22;37874;53.158;6.766;2023-02-15T00:54:57;18.40;55.50
51815;DHT22;37874;53.158;6.766;2023-02-15T00:57:23;18.30;55.40
51815;DHT22;37874;53.158;6.766;2023-02-15T00:59:49;18.30;55.50
51815;DHT22;37874;53.158;6.766;2023-02-15T01:02:15;18.30;55.40
51815;DHT22;37874;53.158;6.766;2023-02-15T01:04:40;18.30;55.50
51815;DHT22;37874;53.158;6.766;2023-02-15T01:07:06;18.30;55.40
51815;DHT22;37874;53.158;6.766;2023-02-15T01:09:32;18.30;55.50
51815;DHT22;37874;53.158;6.766;2023-02-15T01:11:57;18.30;55.50
51815;DHT22;37874;53.158;6.766;2023-02-15T01:14:23;18.30;55.40
51815;DHT22;37874;53.158;6.766;2023-02-15T01:16:48;18.20;55.40
51815;DHT22;37874;53.158;6.766;2023-02-15T01:19:14;18.30;55.40
51815;DHT22;37874;53.158;6.766;2023-02-15T01:21:39;18.20;55.50
51815;DHT22;37874;53.158;6.766;2023-02-15T01:24:12;18.20;55.50
51815;DHT22;37874;53.158;6.766;2023-02-15T01:26:38;18.20;55.40
51815;DHT22;37874;53.158;6.766;2023-02-15T01:29:03;17.40;55.00
51815;DHT22;37874;53.158;6.766;2023-02-15T01:31:29;18.30;55.50
51815;DHT22;37874;53.158;6.766;2023-02-15T01:33:54;18.20;55.50
51815;DHT22;37874;53.158;6.766;2023-02-15T01:36:20;18.20;55.40
51815;DHT22;37874;53.158;6.766;2023-02-15T01:38:46;18.20;55.50
51815;DHT22;37874;53.158;6.766;2023-02-15T01:41:11;18.20;55.40
51815;DHT22;37874;53.158;6.766;2023-02-15T01:43:59;18.20;55.30
51815;DHT22;37874;53.158;6.766;2023-02-15T01:46:45;18.20;55.30
51815;DHT22;37874;53.158;6.766;2023-02-15T01:49:17;18.20;55.30
51815;DHT22;37874;53.158;6.766;2023-02-15T01:51:45;18.20;55.40
51815;DHT22;37874;53.158;6.766;2023-02-15T01:54:29;18.20;55.50
51815;DHT22;37874;53.158;6.766;2023-02-15T01:57:02;18.10;55.30
51815;DHT22;37874;53.158;6.766;2023-02-15T01:59:29;18.20;55.40
51815;DHT22;37874;53.158;6.766;2023-02-15T02:01:58;18.20;55.30
51815;DHT22;37874;53.158;6.766;2023-02-15T02:06:54;18.10;55.30
51815;DHT22;37874;53.158;6.766;2023-02-15T02:09:20;18.10;55.30
51815;DHT22;37874;53.158;6.766;2023-02-15T02:11:46;18.10;55.30
51815;DHT22;37874;53.158;6.766;2023-02-15T02:14:13;18.10;55.40
51815;DHT22;37874;53.158;6.766;2023-02-15T02:25:17;18.10;55.20
51815;DHT22;37874;53.158;6.766;2023-02-15T02:30:47;18.10;55.20
51815;DHT22;37874;53.158;6.766;2023-02-15T02:39:06;18.10;55.20
51815;DHT22;37874;53.158;6.766;2023-02-15T02:44:41;18.30;55.30
51815;DHT22;37874;53.158;6.766;2023-02-15T02:47:12;18.00;55.20
51815;DHT22;37874;53.158;6.766;2023-02-15T02:49:42;18.00;55.20
51815;DHT22;37874;53.158;6.766;2023-02-15T02:52:40;18.00;55.20
51815;DHT22;37874;53.158;6.766;2023-02-15T02:58:31;18.00;55.20
51815;DHT22;37874;53.158;6.766;2023-02-15T03:01:13;18.00;55.20
51815;DHT22;37874;53.158;6.766;2023-02-15T03:03:44;18.00;55.20
51815;DHT22;37874;53.158;6.766;2023-02-15T03:06:18;18.00;55.20
51815;DHT22;37874;53.158;6.766;2023-02-15T03:08:48;18.00;55.20
51815;DHT22;37874;53.158;6.766;2023-02-15T03:11:16;18.00;55.20
51815;DHT22;37874;53.158;6.766;2023-02-15T03:13:43;18.00;55.10
51815;DHT22;37874;53.158;6.766;2023-02-15T03:16:10;17.90;55.10
51815;DHT22;37874;53.158;6.766;2023-02-15T03:19:05;18.00;55.20
51815;DHT22;37874;53.158;6.766;2023-02-15T03:21:42;18.00;55.70
51815;DHT22;37874;53.158;6.766;2023-02-15T03:24:17;18.00;55.10
51815;DHT22;37874;53.158;6.766;2023-02-15T03:26:47;18.00;55.10
51815;DHT22;37874;53.158;6.766;2023-02-15T03:29:16;17.90;55.20
51815;DHT22;37874;53.158;6.766;2023-02-15T03:31:45;18.00;55.10
51815;DHT22;37874;53.158;6.766;2023-02-15T03:34:13;18.00;55.10
51815;DHT22;37874;53.158;6.766;2023-02-15T03:36:52;18.00;55.00
51815;DHT22;37874;53.158;6.766;2023-02-15T03:39:37;18.00;55.00
51815;DHT22;37874;53.158;6.766;2023-02-15T03:42:22;18.00;55.00
51815;DHT22;37874;53.158;6.766;2023-02-15T03:45:04;18.00;55.00
51815;DHT22;37874;53.158;6.766;2023-02-15T03:47:37;18.00;54.90
51815;DHT22;37874;53.158;6.766;2023-02-15T03:50:13;18.00;54.90
51815;DHT22;37874;53.158;6.766;2023-02-15T03:53:02;18.00;54.90
51815;DHT22;37874;53.158;6.766;2023-02-15T03:55:28;18.00;54.90
51815;DHT22;37874;53.158;6.766;2023-02-15T03:57:55;17.40;54.50
51815;DHT22;37874;53.158;6.766;2023-02-15T04:00:44;18.00;54.90
51815;DHT22;37874;53.158;6.766;2023-02-15T04:03:39;18.00;54.80
51815;DHT22;37874;53.158;6.766;2023-02-15T04:06:06;18.00;54.80
51815;DHT22;37874;53.158;6.766;2023-02-15T04:08:31;18.00;54.80
51815;DHT22;37874;53.158;6.766;2023-02-15T04:11:15;18.00;54.80
51815;DHT22;37874;53.158;6.766;2023-02-15T04:13:41;18.00;54.80
51815;DHT22;37874;53.158;6.766;2023-02-15T04:16:07;18.00;54.70
51815;DHT22;37874;53.158;6.766;2023-02-15T04:18:38;18.00;54.80
51815;DHT22;37874;53.158;6.766;2023-02-15T04:21:25;18.00;54.60
51815;DHT22;37874;53.158;6.766;2023-02-15T04:24:09;18.00;54.70
51815;DHT22;37874;53.158;6.766;2023-02-15T04:26:54;18.00;54.70
51815;DHT22;37874;53.158;6.766;2023-02-15T04:29:22;18.00;54.80
51815;DHT22;37874;53.158;6.766;2023-02-15T04:31:47;17.90;54.60
51815;DHT22;37874;53.158;6.766;2023-02-15T04:34:14;17.90;54.60
51815;DHT22;37874;53.158;6.766;2023-02-15T04:36:40;18.00;54.70
51815;DHT22;37874;53.158;6.766;2023-02-15T04:39:06;17.90;54.60
51815;DHT22;37874;53.158;6.766;2023-02-15T04:41:32;17.90;54.60
51815;DHT22;37874;53.158;6.766;2023-02-15T04:43:58;17.90;54.70
51815;DHT22;37874;53.158;6.766;2023-02-15T04:46:24;17.90;54.60
51815;DHT22;37874;53.158;6.766;2023-02-15T04:48:50;17.90;54.60
51815;DHT22;37874;53.158;6.766;2023-02-15T04:51:16;17.80;54.60
51815;DHT22;37874;53.158;6.766;2023-02-15T04:53:41;17.90;54.70
51815;DHT22;37874;53.158;6.766;2023-02-15T04:56:07;18.00;54.70
51815;DHT22;37874;53.158;6.766;2023-02-15T04:58:33;17.90;54.60
51815;DHT22;37874;53.158;6.766;2023-02-15T05:00:58;18.00;54.60
51815;DHT22;37874;53.158;6.766;2023-02-15T05:03:25;17.90;54.60
51815;DHT22;37874;53.158;6.766;2023-02-15T05:05:51;17.90;54.60
51815;DHT22;37874;53.158;6.766;2023-02-15T05:08:16;17.90;54.60
51815;DHT22;37874;53.158;6.766;2023-02-15T05:10:42;17.90;54.60
51815;DHT22;37874;53.158;6.766;2023-02-15T05:13:08;17.90;54.50
51815;DHT22;37874;53.158;6.766;2023-02-15T05:15:33;17.90;54.60
51815;DHT22;37874;53.158;6.766;2023-02-15T05:17:59;17.90;54.60
51815;DHT22;37874;53.158;6.766;2023-02-15T05:20:24;17.80;54.60
51815;DHT22;37874;53.158;6.766;2023-02-15T05:22:53;17.80;54.50
51815;DHT22;37874;53.158;6.766;2023-02-15T05:25:19;17.80;54.50
51815;DHT22;37874;53.158;6.766;2023-02-15T05:28:03;17.80;54.40
51815;DHT22;37874;53.158;6.766;2023-02-15T05:30:45;17.80;54.50
51815;DHT22;37874;53.158;6.766;2023-02-15T05:33:10;17.80;54.50
51815;DHT22;37874;53.158;6.766;2023-02-15T05:35:36;17.80;54.40
51815;DHT22;37874;53.158;6.766;2023-02-15T05:38:01;17.80;54.50
51815;DHT22;37874;53.158;6.766;2023-02-15T05:40:27;17.80;54.40
51815;DHT22;37874;53.158;6.766;2023-02-15T05:42:53;17.80;54.40
51815;DHT22;37874;53.158;6.766;2023-02-15T05:45:18;17.80;54.30
51815;DHT22;37874;53.158;6.766;2023-02-15T05:47:44;17.80;54.40
51815;DHT22;37874;53.158;6.766;2023-02-15T05:50:10;17.80;54.50
51815;DHT22;37874;53.158;6.766;2023-02-15T05:52:36;17.80;54.40
51815;DHT22;37874;53.158;6.766;2023-02-15T05:55:03;17.80;54.30
51815;DHT22;37874;53.158;6.766;2023-02-15T05:57:29;17.80;54.90
51815;DHT22;37874;53.158;6.766;2023-02-15T05:59:55;17.80;54.20
51815;DHT22;37874;53.158;6.766;2023-02-15T06:02:21;17.80;54.40
51815;DHT22;37874;53.158;6.766;2023-02-15T06:04:47;17.80;54.30
51815;DHT22;37874;53.158;6.766;2023-02-15T06:07:12;17.80;54.50
51815;DHT22;37874;53.158;6.766;2023-02-15T06:09:38;17.70;54.30
51815;DHT22;37874;53.158;6.766;2023-02-15T06:12:03;17.70;54.40
51815;DHT22;37874;53.158;6.766;2023-02-15T06:14:29;17.80;54.30
51815;DHT22;37874;53.158;6.766;2023-02-15T06:16:55;17.80;54.30
51815;DHT22;37874;53.158;6.766;2023-02-15T06:19:20;17.80;54.50
51815;DHT22;37874;53.158;6.766;2023-02-15T06:21:48;17.70;54.40
51815;DHT22;37874;53.158;6.766;2023-02-15T06:24:13;17.80;54.40
51815;DHT22;37874;53.158;6.766;2023-02-15T06:26:39;17.80;54.40
51815;DHT22;37874;53.158;6.766;2023-02-15T06:29:05;17.80;54.40
51815;DHT22;37874;53.158;6.766;2023-02-15T06:31:30;17.80;54.40
51815;DHT22;37874;53.158;6.766;2023-02-15T06:33:56;17.80;54.40
51815;DHT22;37874;53.158;6.766;2023-02-15T06:36:27;17.80;54.30
51815;DHT22;37874;53.158;6.766;2023-02-15T06:38:54;17.70;54.00
51815;DHT22;37874;53.158;6.766;2023-02-15T06:41:19;17.70;54.00
51815;DHT22;37874;53.158;6.766;2023-02-15T06:43:45;17.70;53.90
51815;DHT22;37874;53.158;6.766;2023-02-15T06:46:10;17.70;54.10
51815;DHT22;37874;53.158;6.766;2023-02-15T06:48:36;17.70;54.20
51815;DHT22;37874;53.158;6.766;2023-02-15T06:51:02;17.70;54.10
51815;DHT22;37874;53.158;6.766;2023-02-15T06:53:27;17.60;54.10
51815;DHT22;37874;53.158;6.766;2023-02-15T06:55:59;17.70;54.20
51815;DHT22;37874;53.158;6.766;2023-02-15T06:58:25;17.80;54.40
51815;DHT22;37874;53.158;6.766;2023-02-15T07:00:51;17.60;54.10
51815;DHT22;37874;53.158;6.766;2023-02-15T07:03:17;17.60;54.60
51815;DHT22;37874;53.158;6.766;2023-02-15T07:05:42;18.40;54.50
51815;DHT22;37874;53.158;6.766;2023-02-15T07:08:08;17.60;54.30
51815;DHT22;37874;53.158;6.766;2023-02-15T07:10:34;17.60;54.30
51815;DHT22;37874;53.158;6.766;2023-02-15T07:13:00;18.30;54.80
51815;DHT22;37874;53.158;6.766;2023-02-15T07:15:25;17.60;54.50
51815;DHT22;37874;53.158;6.766;2023-02-15T07:17:51;17.60;54.50
51815;DHT22;37874;53.158;6.766;2023-02-15T07:20:19;17.60;54.50
51815;DHT22;37874;53.158;6.766;2023-02-15T07:22:45;17.60;54.40
51815;DHT22;37874;53.158;6.766;2023-02-15T07:25:12;17.60;54.50
51815;DHT22;37874;53.158;6.766;2023-02-15T07:27:38;17.60;54.30
51815;DHT22;37874;53.158;6.766;2023-02-15T07:30:06;17.70;54.30
51815;DHT22;37874;53.158;6.766;2023-02-15T07:32:32;17.60;54.30
51815;DHT22;37874;53.158;6.766;2023-02-15T07:34:59;17.70;54.40
51815;DHT22;37874;53.158;6.766;2023-02-15T07:37:24;17.70;54.40
51815;DHT22;37874;53.158;6.766;2023-02-15T07:39:50;17.70;54.30
51815;DHT22;37874;53.158;6.766;2023-02-15T07:42:16;17.70;54.30
51815;DHT22;37874;53.158;6.766;2023-02-15T07:44:43;17.70;54.20
51815;DHT22;37874;53.158;6.766;2023-02-15T07:47:08;17.70;54.20
51815;DHT22;37874;53.158;6.766;2023-02-15T07:49:34;17.70;54.20
51815;DHT22;37874;53.158;6.766;2023-02-15T07:52:01;17.70;54.20
51815;DHT22;37874;53.158;6.766;2023-02-15T07:54:27;17.70;54.20
51815;DHT22;37874;53.158;6.766;2023-02-15T07:56:53;17.70;54.10
51815;DHT22;37874;53.158;6.766;2023-02-15T07:59:18;17.70;54.10
51815;DHT22;37874;53.158;6.766;2023-02-15T08:01:44;17.70;54.10
51815;DHT22;37874;53.158;6.766;2023-02-15T08:04:09;17.80;54.10
51815;DHT22;37874;53.158;6.766;2023-02-15T08:06:37;17.80;54.10
51815;DHT22;37874;53.158;6.766;2023-02-15T08:09:05;17.80;54.10
51815;DHT22;37874;53.158;6.766;2023-02-15T08:11:33;17.70;54.00
51815;DHT22;37874;53.158;6.766;2023-02-15T08:14:07;17.70;54.00
51815;DHT22;37874;53.158;6.766;2023-02-15T08:19:07;17.80;54.00
51815;DHT22;37874;53.158;6.766;2023-02-15T08:21:35;17.80;53.90
51815;DHT22;37874;53.158;6.766;2023-02-15T08:24:02;17.70;53.90
51815;DHT22;37874;53.158;6.766;2023-02-15T08:26:28;17.80;54.00
51815;DHT22;37874;53.158;6.766;2023-02-15T08:28:55;17.80;53.90
51815;DHT22;37874;53.158;6.766;2023-02-15T08:31:21;17.80;53.90
51815;DHT22;37874;53.158;6.766;2023-02-15T08:33:48;17.80;53.80
51815;DHT22;37874;53.158;6.766;2023-02-15T08:36:16;17.80;53.80
51815;DHT22;37874;53.158;6.766;2023-02-15T08:38:42;17.80;53.90
51815;DHT22;37874;53.158;6.766;2023-02-15T08:41:21;17.90;53.90
51815;DHT22;37874;53.158;6.766;2023-02-15T08:43:49;17.80;53.80
51815;DHT22;37874;53.158;6.766;2023-02-15T08:46:16;17.80;53.80
51815;DHT22;37874;53.158;6.766;2023-02-15T08:48:43;17.80;53.80
51815;DHT22;37874;53.158;6.766;2023-02-15T08:51:12;17.80;53.70
51815;DHT22;37874;53.158;6.766;2023-02-15T08:53:41;17.80;53.70
51815;DHT22;37874;53.158;6.766;2023-02-15T08:56:08;17.90;53.80
51815;DHT22;37874;53.158;6.766;2023-02-15T08:58:34;17.90;53.70
51815;DHT22;37874;53.158;6.766;2023-02-15T09:01:00;17.80;53.70
51815;DHT22;37874;53.158;6.766;2023-02-15T09:03:28;17.90;53.70
51815;DHT22;37874;53.158;6.766;2023-02-15T09:06:01;17.90;53.60
51815;DHT22;37874;53.158;6.766;2023-02-15T09:08:27;17.80;53.70
51815;DHT22;37874;53.158;6.766;2023-02-15T09:10:53;17.90;53.60
51815;DHT22;37874;53.158;6.766;2023-02-15T09:13:19;17.90;53.60
51815;DHT22;37874;53.158;6.766;2023-02-15T09:15:46;17.90;53.60
51815;DHT22;37874;53.158;6.766;2023-02-15T09:18:11;17.90;53.60
51815;DHT22;37874;53.158;6.766;2023-02-15T09:20:43;17.90;53.50
51815;DHT22;37874;53.158;6.766;2023-02-15T09:23:09;17.90;53.60
51815;DHT22;37874;53.158;6.766;2023-02-15T09:25:35;17.90;53.60
51815;DHT22;37874;53.158;6.766;2023-02-15T09:28:00;17.90;53.50
51815;DHT22;37874;53.158;6.766;2023-02-15T09:30:26;17.90;53.40
51815;DHT22;37874;53.158;6.766;2023-02-15T09:32:51;17.90;53.50
51815;DHT22;37874;53.158;6.766;2023-02-15T09:35:17;17.90;53.40
51815;DHT22;37874;53.158;6.766;2023-02-15T09:37:42;17.80;53.30
51815;DHT22;37874;53.158;6.766;2023-02-15T09:40:08;17.90;53.40
51815;DHT22;37874;53.158;6.766;2023-02-15T09:45:27;18.00;53.40
51815;DHT22;37874;53.158;6.766;2023-02-15T09:48:01;17.90;53.40
51815;DHT22;37874;53.158;6.766;2023-02-15T09:50:38;18.00;53.40
51815;DHT22;37874;53.158;6.766;2023-02-15T09:56:14;18.00;53.40
51815;DHT22;37874;53.158;6.766;2023-02-15T10:10:07;18.00;53.30
51815;DHT22;37874;53.158;6.766;2023-02-15T10:15:16;18.00;53.40
51815;DHT22;37874;53.158;6.766;2023-02-15T10:17:51;18.00;53.50
51815;DHT22;37874;53.158;6.766;2023-02-15T10:23:28;18.00;53.30
51815;DHT22;37874;53.158;6.766;2023-02-15T10:31:23;18.00;53.50
51815;DHT22;37874;53.158;6.766;2023-02-15T10:42:15;18.10;53.50
51815;DHT22;37874;53.158;6.766;2023-02-15T10:59:25;18.10;53.40
51815;DHT22;37874;53.158;6.766;2023-02-15T11:02:10;18.20;53.50
51815;DHT22;37874;53.158;6.766;2023-02-15T11:07:41;18.20;54.00
51815;DHT22;37874;53.158;6.766;2023-02-15T11:10:35;18.20;53.30
51815;DHT22;37874;53.158;6.766;2023-02-15T11:13:17;18.20;53.30
51815;DHT22;37874;53.158;6.766;2023-02-15T11:15:47;18.30;53.10
51815;DHT22;37874;53.158;6.766;2023-02-15T11:18:21;18.30;53.10
51815;DHT22;37874;53.158;6.766;2023-02-15T11:23:32;18.40;53.00
51815;DHT22;37874;53.158;6.766;2023-02-15T11:26:01;18.40;52.80
51815;DHT22;37874;53.158;6.766;2023-02-15T11:28:33;18.60;52.70
51815;DHT22;37874;53.158;6.766;2023-02-15T11:31:24;18.50;52.60
51815;DHT22;37874;53.158;6.766;2023-02-15T11:33:58;18.60;52.60
51815;DHT22;37874;53.158;6.766;2023-02-15T11:36:28;18.60;52.50
51815;DHT22;37874;53.158;6.766;2023-02-15T11:39:05;18.70;52.50
51815;DHT22;37874;53.158;6.766;2023-02-15T11:41:37;18.70;52.40
51815;DHT22;37874;53.158;6.766;2023-02-15T11:44:14;18.80;52.30
51815;DHT22;37874;53.158;6.766;2023-02-15T11:46:41;18.80;52.30
51815;DHT22;37874;53.158;6.766;2023-02-15T11:49:33;18.90;52.70
51815;DHT22;37874;53.158;6.766;2023-02-15T11:52:05;19.00;52.00
51815;DHT22;37874;53.158;6.766;2023-02-15T11:54:34;19.00;51.80
51815;DHT22;37874;53.158;6.766;2023-02-15T12:02:52;19.20;51.60
51815;DHT22;37874;53.158;6.766;2023-02-15T12:05:22;19.20;51.40
51815;DHT22;37874;53.158;6.766;2023-02-15T12:08:16;19.30;51.50
51815;DHT22;37874;53.158;6.766;2023-02-15T12:11:03;19.30;51.40
51815;DHT22;37874;53.158;6.766;2023-02-15T12:13:31;19.50;51.60
51815;DHT22;37874;53.158;6.766;2023-02-15T12:15:58;19.40;51.50
51815;DHT22;37874;53.158;6.766;2023-02-15T12:18:36;19.50;51.30
51815;DHT22;37874;53.158;6.766;2023-02-15T12:21:15;19.60;51.40
51815;DHT22;37874;53.158;6.766;2023-02-15T12:23:52;19.60;51.30
51815;DHT22;37874;53.158;6.766;2023-02-15T12:26:29;19.60;51.40
51815;DHT22;37874;53.158;6.766;2023-02-15T12:28:57;19.60;51.50
51815;DHT22;37874;53.158;6.766;2023-02-15T12:31:31;19.50;51.50
51815;DHT22;37874;53.158;6.766;2023-02-15T12:33:59;19.50;51.60
51815;DHT22;37874;53.158;6.766;2023-02-15T12:36:42;19.50;51.50
51815;DHT22;37874;53.158;6.766;2023-02-15T12:41:38;19.40;51.60
51815;DHT22;37874;53.158;6.766;2023-02-15T12:44:15;19.40;51.70
51815;DHT22;37874;53.158;6.766;2023-02-15T12:46:41;19.50;51.90
51815;DHT22;37874;53.158;6.766;2023-02-15T12:49:17;19.90;52.10
51815;DHT22;37874;53.158;6.766;2023-02-15T12:52:04;19.40;51.80
51815;DHT22;37874;53.158;6.766;2023-02-15T12:54:42;19.40;51.90
51815;DHT22;37874;53.158;6.766;2023-02-15T12:57:20;19.40;51.90
51815;DHT22;37874;53.158;6.766;2023-02-15T12:59:58;19.40;52.00
51815;DHT22;37874;53.158;6.766;2023-02-15T13:02:28;19.40;52.00
51815;DHT22;37874;53.158;6.766;2023-02-15T13:04:56;19.40;52.00
51815;DHT22;37874;53.158;6.766;2023-02-15T13:07:24;19.40;52.10
51815;DHT22;37874;53.158;6.766;2023-02-15T13:09:50;19.30;52.00
51815;DHT22;37874;53.158;6.766;2023-02-15T13:12:28;19.40;52.10
51815;DHT22;37874;53.158;6.766;2023-02-15T13:14:59;19.40;52.20
51815;DHT22;37874;53.158;6.766;2023-02-15T13:17:30;19.40;52.20
51815;DHT22;37874;53.158;6.766;2023-02-15T13:20:17;19.40;52.20
51815;DHT22;37874;53.158;6.766;2023-02-15T13:22:46;19.40;52.20
51815;DHT22;37874;53.158;6.766;2023-02-15T13:25:19;19.40;52.30
51815;DHT22;37874;53.158;6.766;2023-02-15T13:27:46;19.30;52.30
51815;DHT22;37874;53.158;6.766;2023-02-15T13:32:45;19.40;52.40
51815;DHT22;37874;53.158;6.766;2023-02-15T13:35:15;19.40;52.40
51815;DHT22;37874;53.158;6.766;2023-02-15T13:38:02;19.40;52.40
51815;DHT22;37874;53.158;6.766;2023-02-15T13:40:48;19.40;52.40
51815;DHT22;37874;53.158;6.766;2023-02-15T13:46:00;19.40;52.50
51815;DHT22;37874;53.158;6.766;2023-02-15T13:51:43;19.40;52.50
51815;DHT22;37874;53.158;6.766;2023-02-15T14:02:49;19.30;52.80
51815;DHT22;37874;53.158;6.766;2023-02-15T14:05:46;19.30;52.80
51815;DHT22;37874;53.158;6.766;2023-02-15T14:08:35;19.30;52.90
51815;DHT22;37874;53.158;6.766;2023-02-15T14:13:55;19.30;52.90
51815;DHT22;37874;53.158;6.766;2023-02-15T14:22:00;19.30;53.00
51815;DHT22;37874;53.158;6.766;2023-02-15T14:24:44;19.30;53.10
51815;DHT22;37874;53.158;6.766;2023-02-15T14:30:03;19.30;53.30
51815;DHT22;37874;53.158;6.766;2023-02-15T14:32:38;19.30;53.30
51815;DHT22;37874;53.158;6.766;2023-02-15T14:35:08;19.30;53.20
51815;DHT22;37874;53.158;6.766;2023-02-15T14:41:02;19.30;53.40
51815;DHT22;37874;53.158;6.766;2023-02-15T14:49:12;19.30;53.50
51815;DHT22;37874;53.158;6.766;2023-02-15T14:57:19;19.20;53.60
51815;DHT22;37874;53.158;6.766;2023-02-15T15:02:03;19.20;53.70
51815;DHT22;37874;53.158;6.766;2023-02-15T15:04:38;19.20;53.80
51815;DHT22;37874;53.158;6.766;2023-02-15T15:07:20;19.20;53.80
51815;DHT22;37874;53.158;6.766;2023-02-15T15:09:58;19.20;53.80
51815;DHT22;37874;53.158;6.766;2023-02-15T15:14:51;19.20;53.90
51815;DHT22;37874;53.158;6.766;2023-02-15T15:20:05;19.10;53.90
51815;DHT22;37874;53.158;6.766;2023-02-15T15:22:35;19.10;54.10
51815;DHT22;37874;53.158;6.766;2023-02-15T15:25:04;19.10;54.00
51815;DHT22;37874;53.158;6.766;2023-02-15T15:32:52;19.00;54.20
51815;DHT22;37874;53.158;6.766;2023-02-15T15:41:42;18.90;54.30
51815;DHT22;37874;53.158;6.766;2023-02-15T15:47:28;18.90;54.40
51815;DHT22;37874;53.158;6.766;2023-02-15T15:49:59;18.90;54.50
51815;DHT22;37874;53.158;6.766;2023-02-15T15:52:26;18.90;54.30
51815;DHT22;37874;53.158;6.766;2023-02-15T15:55:03;18.90;54.30
51815;DHT22;37874;53.158;6.766;2023-02-15T15:57:39;18.80;54.20
51815;DHT22;37874;53.158;6.766;2023-02-15T16:02:56;18.80;54.30
51815;DHT22;37874;53.158;6.766;2023-02-15T16:05:22;18.80;54.30
51815;DHT22;37874;53.158;6.766;2023-02-15T16:07:48;18.80;54.20
51815;DHT22;37874;53.158;6.766;2023-02-15T16:10:26;18.70;54.30
51815;DHT22;37874;53.158;6.766;2023-02-15T16:12:53;18.70;54.40
51815;DHT22;37874;53.158;6.766;2023-02-15T16:15:25;18.70;54.40
51815;DHT22;37874;53.158;6.766;2023-02-15T16:17:57;18.70;54.50
51815;DHT22;37874;53.158;6.766;2023-02-15T16:20:30;18.70;54.80
51815;DHT22;37874;53.158;6.766;2023-02-15T16:23:16;18.70;54.60
51815;DHT22;37874;53.158;6.766;2023-02-15T16:28:25;18.60;54.70
51815;DHT22;37874;53.158;6.766;2023-02-15T16:31:13;18.60;54.80
51815;DHT22;37874;53.158;6.766;2023-02-15T16:33:40;18.60;54.80
51815;DHT22;37874;53.158;6.766;2023-02-15T16:36:12;18.50;54.80
51815;DHT22;37874;53.158;6.766;2023-02-15T16:41:21;18.50;55.00
51815;DHT22;37874;53.158;6.766;2023-02-15T16:43:49;18.50;55.10
51815;DHT22;37874;53.158;6.766;2023-02-15T16:49:00;18.40;55.60
51815;DHT22;37874;53.158;6.766;2023-02-15T16:51:30;18.50;55.30
51815;DHT22;37874;53.158;6.766;2023-02-15T16:54:07;18.40;55.30
51815;DHT22;37874;53.158;6.766;2023-02-15T16:56:34;18.40;55.40
51815;DHT22;37874;53.158;6.766;2023-02-15T16:59:02;18.40;55.40
51815;DHT22;37874;53.158;6.766;2023-02-15T17:01:31;18.40;55.50
51815;DHT22;37874;53.158;6.766;2023-02-15T17:07:28;18.40;55.60
51815;DHT22;37874;53.158;6.766;2023-02-15T17:09:56;18.40;55.70
51815;DHT22;37874;53.158;6.766;2023-02-15T17:17:50;18.30;55.80
51815;DHT22;37874;53.158;6.766;2023-02-15T17:20:16;18.30;55.80
51815;DHT22;37874;53.158;6.766;2023-02-15T17:22:42;18.30;55.90
51815;DHT22;37874;53.158;6.766;2023-02-15T17:25:19;18.30;56.00
51815;DHT22;37874;53.158;6.766;2023-02-15T17:27:51;18.30;56.00
51815;DHT22;37874;53.158;6.766;2023-02-15T17:30:43;18.30;56.00
51815;DHT22;37874;53.158;6.766;2023-02-15T17:33:22;18.30;56.10
51815;DHT22;37874;53.158;6.766;2023-02-15T17:38:35;18.20;56.10
51815;DHT22;37874;53.158;6.766;2023-02-15T17:41:01;18.20;56.10
51815;DHT22;37874;53.158;6.766;2023-02-15T17:43:26;18.20;56.20
51815;DHT22;37874;53.158;6.766;2023-02-15T17:45:53;18.20;56.30
51815;DHT22;37874;53.158;6.766;2023-02-15T17:48:28;18.20;56.20
51815;DHT22;37874;53.158;6.766;2023-02-15T17:50:57;17.50;55.90
51815;DHT22;37874;53.158;6.766;2023-02-15T17:53:23;18.20;56.40
51815;DHT22;37874;53.158;6.766;2023-02-15T17:55:50;18.20;56.60
51815;DHT22;37874;53.158;6.766;2023-02-15T17:58:18;18.20;56.40
51815;DHT22;37874;53.158;6.766;2023-02-15T18:00:52;18.10;56.40
51815;DHT22;37874;53.158;6.766;2023-02-15T18:06:27;18.20;56.60
51815;DHT22;37874;53.158;6.766;2023-02-15T18:09:17;18.10;56.70
51815;DHT22;37874;53.158;6.766;2023-02-15T18:12:04;18.20;56.80
51815;DHT22;37874;53.158;6.766;2023-02-15T18:14:31;18.10;56.80
51815;DHT22;37874;53.158;6.766;2023-02-15T18:16:57;18.10;56.80
51815;DHT22;37874;53.158;6.766;2023-02-15T18:19:26;18.10;56.70
51815;DHT22;37874;53.158;6.766;2023-02-15T18:21:52;18.10;56.80
51815;DHT22;37874;53.158;6.766;2023-02-15T18:24:24;18.10;56.80
51815;DHT22;37874;53.158;6.766;2023-02-15T18:26:52;18.10;56.80
51815;DHT22;37874;53.158;6.766;2023-02-15T18:29:18;18.10;56.80
51815;DHT22;37874;53.158;6.766;2023-02-15T18:31:45;17.70;56.40
51815;DHT22;37874;53.158;6.766;2023-02-15T18:34:23;18.10;56.50
51815;DHT22;37874;53.158;6.766;2023-02-15T18:36:50;18.20;56.60
51815;DHT22;37874;53.158;6.766;2023-02-15T18:42:00;18.20;56.40
51815;DHT22;37874;53.158;6.766;2023-02-15T18:44:26;18.20;56.40
51815;DHT22;37874;53.158;6.766;2023-02-15T18:46:52;18.20;56.40
51815;DHT22;37874;53.158;6.766;2023-02-15T18:49:17;18.30;56.30
51815;DHT22;37874;53.158;6.766;2023-02-15T18:51:43;18.30;56.20
51815;DHT22;37874;53.158;6.766;2023-02-15T18:54:21;18.30;56.30
51815;DHT22;37874;53.158;6.766;2023-02-15T18:56:52;18.30;56.00